»·PEaware :: UAL1533 KSAN-KLAX

UAL1533 :: KSAN-KLAX

FLIGHT INFORMATION

Flight Status: Arrived
Operator:
United Airlines
More flights by this operator :: More flights under this callsign
Pilot: Russell H. (17850)
Aircraft: DEHAVILLAND DASH 8 400
(DH8D)
More flights by this aircraft type
Origin: KSAN San Diego Intl-Lindbergh
United States
Destination: KLAX Los Angeles Intl
United States
More flights between these airports :: More routes between these airports
Route: +PEBLE6 SLI
File this flight plan on PilotEdge
Remarks: PBN / D1 DOF / 180111 REG / N847SB OPR / UAL PER / C RMK / TCAS SIMBRIEF
Altitude:
(Current/Filed)
12,000ft
Speed:
(Current/Filed)
300kts
Departed: 10-Jan-18 07:32 PM
Arrived: 10-Jan-18 08:06 PM
Distance/Time
Traveled:
95nm/0:34
Distance/Time
To Go:
Arrived

Flight Plot

Page will automatically refresh every two minutes.


Map Options




Map Legend


Flown Route
Filed Route
Departure Airport
Arrival Airport
Navaid (VOR, NDB)
Fix

Horizontal Profiles

Position Reports

Time Latitude Longitude Heading Altitude Ground
Speed
10-Jan-18 19:09 32.734840 -117.203984 195 22ft 0kts
10-Jan-18 19:10 32.734840 -117.203984 195 22ft 0kts
10-Jan-18 19:11 32.734840 -117.203984 195 22ft 0kts
10-Jan-18 19:12 32.734840 -117.203984 195 22ft 0kts
10-Jan-18 19:13 32.734840 -117.203984 195 22ft 0kts
10-Jan-18 19:14 32.734840 -117.203984 195 22ft 0kts
10-Jan-18 19:15 32.734840 -117.203984 195 22ft 0kts
10-Jan-18 19:16 32.734840 -117.203984 195 22ft 0kts
10-Jan-18 19:17 32.734840 -117.203984 195 22ft 0kts
10-Jan-18 19:18 32.734840 -117.203984 195 22ft 0kts
10-Jan-18 19:19 32.734840 -117.203984 195 22ft 0kts
10-Jan-18 19:20 32.734840 -117.203984 195 22ft 0kts
10-Jan-18 19:21 32.734840 -117.203984 195 22ft 0kts
10-Jan-18 19:22 32.735017 -117.203925 195 22ft 4kts
10-Jan-18 19:31 32.735607 -117.203105 119 22ft 0kts
10-Jan-18 19:32 32.735380 -117.201750 99 22ft 16kts
10-Jan-18 19:33 32.733950 -117.195595 106 22ft 22kts
10-Jan-18 19:34 32.732138 -117.188131 105 22ft 24kts
10-Jan-18 19:35 32.730307 -117.180512 106 22ft 24kts
10-Jan-18 19:36 32.729629 -117.177702 106 22ft 0kts
10-Jan-18 19:37 32.729452 -117.176069 73 22ft 3kts
10-Jan-18 19:38 32.735714 -117.197554 286 299ft 157kts
10-Jan-18 19:39 32.763653 -117.246902 305 2306ft 190kts
10-Jan-18 19:40 32.798934 -117.301268 305 4531ft 212kts
10-Jan-18 19:41 32.829475 -117.353678 305 7496ft 173kts
10-Jan-18 19:42 32.861172 -117.411470 306 7976ft 240kts
10-Jan-18 19:43 32.901591 -117.458882 330 7974ft 194kts
10-Jan-18 19:44 32.941513 -117.499676 315 7996ft 211kts
10-Jan-18 19:45 32.981423 -117.554970 320 7975ft 223kts
10-Jan-18 19:46 33.037610 -117.591061 332 7980ft 238kts
10-Jan-18 19:47 33.097367 -117.627948 333 7979ft 242kts
10-Jan-18 19:48 33.156840 -117.664723 333 7979ft 242kts
10-Jan-18 19:49 33.212250 -117.699045 333 7979ft 241kts
10-Jan-18 19:50 33.271805 -117.735966 333 7979ft 240kts
10-Jan-18 19:51 33.328501 -117.771151 333 7978ft 240kts
10-Jan-18 19:52 33.385830 -117.806781 333 7977ft 240kts
10-Jan-18 19:53 33.445182 -117.843725 333 7922ft 237kts
10-Jan-18 19:54 33.502963 -117.879361 335 7869ft 228kts
10-Jan-18 19:55 33.560534 -117.913322 333 6795ft 196kts
10-Jan-18 19:56 33.592797 -117.933702 332 7767ft 183kts
10-Jan-18 19:57 33.644085 -117.966307 332 8053ft 233kts
10-Jan-18 19:58 33.698824 -118.001409 333 7028ft 205kts
10-Jan-18 19:59 33.742610 -118.029142 332 6979ft 181kts
10-Jan-18 20:00 33.789386 -118.058267 338 6953ft 193kts
10-Jan-18 20:01 33.843531 -118.056912 2 6513ft 203kts
10-Jan-18 20:02 33.891556 -118.052076 2 5693ft 145kts
10-Jan-18 20:03 33.936306 -118.047595 358 4731ft 183kts
10-Jan-18 20:04 33.958270 -118.090907 276 3788ft 151kts
10-Jan-18 20:05 33.959551 -118.135589 268 2749ft 127kts
10-Jan-18 20:06 33.957611 -118.176203 263 3445ft 135kts
10-Jan-18 20:07 33.953441 -118.223304 263 2694ft 133kts
10-Jan-18 20:08 33.949320 -118.266170 262 2032ft 130kts
10-Jan-18 20:09 33.945125 -118.308980 260 1338ft 127kts
10-Jan-18 20:10 33.940725 -118.350627 260 680ft 123kts
10-Jan-18 20:11 33.936545 -118.390619 263 133ft 70kts
10-Jan-18 20:12 33.936180 -118.398220 289 133ft 0kts
10-Jan-18 20:13 33.936378 -118.398832 293 133ft 0kts
10-Jan-18 20:14 33.936911 -118.403829 317 133ft 11kts
10-Jan-18 20:15 33.937989 -118.404233 350 133ft 0kts
10-Jan-18 20:16 33.938986 -118.405330 350 133ft 14kts
10-Jan-18 20:17 33.940012 -118.405028 80 133ft 0kts
10-Jan-18 20:18 33.940012 -118.405028 80 133ft 0kts

Navigation Log

Ident Type
1. KSAN Airport
2. MELDY Fix
3. PEBLE Fix
4. SLI Navaid
5. KLAX Airport